Portada
METAR-TAF:

METAR-TAF

Aeroports :

Makkovik, Terranova i Labrador, Canadà

latitud: 55-05N, longitud: 059-11W, altitud: 71 m

Observació

L'informe es va fer fa 10 hores i 10 minuts, a les 20:00 UTC
Vent 12 kt del Sud/Sud-Est amb ràfegues de 19 kt
Temperatura 12°C
Humitat 67%
Pressió 1001 hPa
Visibilitat: 24.1 km
Núvols disperses a una alçada de 13000 ft
Núvols disperses a una alçada de 22000 ft

METAR: CYFT 242000Z 15012G19KT 15SM SCT130 SCT220 12/06 A2955 RMK AC3CS1 / LAST STFD OBS / NEXT 250900Z / SLP011

Hora: 03:10 (06:10 UTC)


TAF: manca

Observacions i pronòstics meteorològics de més de 4000 aeroports (METAR i TAF).

Les estacions disponibles són els punts grocs i vermells al mapa.

Posi el ratolí al punt desitjat per veure el nom de l'estació.

Feu clic per veure les observacions i els pronòstics meteorològics.

Per canviar el mapa: feu clic els botons verds amb una creu de color negre per apropar; al botó verd amb un guió per allunyar la imatge; o en les fletxes verdes per a mapes adjacents.


METAR-TAF: